Imperia, Italia

11:49 AM CEST del 22 Agosto 2014 (GMT +0200)
METEO IMPERIA | Change Station
CLOSE
Current Station
Stazione meteo personale
Location: IMPERIA, IMPERIA
Altitudine: 279 ft
Stazioni meteo nelle vicinanze

Alt. 279 ft 43.90 °N, 8.03 °E | Updated 47 seconds ago

Partly Cloudy
Parzialmente nuvoloso
75.0 °F
Sembra 76 °F
N
5.0
Vento Variabile Vento da SE
Gusts 6.0 mph

Oggi
Massima -- | Minima -- °F
--% Possibilità di precip.
Ieri
Massima -- | Minima -- °F
Precip. -- in
6:39 AM 8:21 PM
Luna calante, 9% visible
Pressione 29.98 in
Visibilità 6.2 miglia
Nuvole Alcuni 2300 ft
Indice di calore 76 °F
Punto di rugiada 66 °F
Umidità 73%
Piovosità 0.00 in
Spessore del manto nevoso Non disponibile.
Raggi UV 8 fuori da 12
Polline Non disponibile.
Qualità dell'aria Non disponibile.
Flu Activity Non disponibile.
METAR LFMN 220930Z 17008KT 9999 FEW023 24/16 Q1015 NOSIG

More Conditions Fewer Conditions

Pressione 29.98 in
Visibilità 6.2 miglia
Nuvole Alcuni 2300 ft
Indice di calore 76 °F
Punto di rugiada 66 °F
Umidità 73%
Piovosità 0.00 in
Spessore del manto nevoso Non disponibile.
Raggi UV 8 fuori da 12
Polline Non disponibile.
Qualità dell'aria Non disponibile.
Flu Activity Non disponibile.
METAR LFMN 220930Z 17008KT 9999 FEW023 24/16 Q1015 NOSIG

More Conditions Fewer Conditions

10-Day Weather Forecast

Almanac

Astronomia

Aug. 22, 2014 Alba Tramonto
Ora attuale 06:39 CEST 20:21 CEST
Crepuscolo civile 06:09 CEST 20:51 CEST
Crepuscolo nautico 05:31 CEST 21:28 CEST
Crepuscolo astronomico 04:51 CEST 22:08 CEST
Luna 03:45 CEST 18:21 CEST
Estensione della luce visibile 14h 42m
Lunghezza del giorno
13h 41m
Tomorrow will be 2m 47s shorter.
Luna calante, 9% of the Moon is Illuminated
Oggi
Luna calante
Ago 25
Nuovo
Set 2
Primo quarto
Set 8
Luna piena
Set 15
Ultimo quarto

Minime e massime di ieri

Massime Regione Minime Regione

Community

WunderPhotos

Upload Photos

1,746,146 foto caricate!

Nearby

Qualità dell'aria

Not available.

Profondità neve

Not available.

Attività sismica

Città  Distanza Mag. Data & Ora
Non sono state riportate attività sismiche nelle vicinanze.
Minimo Magnitudo Mostrato è 2.5.

Temperature delle acque costiere

Località Temperatura
Nessun dato dalle stazioni

Stazioni meteo nelle vicinanze